4AA4 weather

South Peninsula Hospital Heliport
Homer, Alaska, United States

Public forecast

Using degrees Fahrenheit for public forecast. Weather courtesy of forecast.io.

METAR (pilot weather report)

Closest report is Homer Airport, 2.3 nm (4.2 km) E. Retrieved 2019/09/17 17:53 UTC (24 minutes ago):

PAHO 171753Z 05004KT 10SM CLR 09/09 A2971 RMK AO2 SLP058 T00940089 10094 20050 54000 $

TAF (pilot weather forecast)

Closest forecast is Homer Airport, 2.3 nm (4.2 km) E. Retrieved 2019/09/17 18:24 UTC (0 seconds ago):

TAF PAHO 171721Z 1718/1818 VRB04KT P6SM SCT040 OVC080 FM172300 VRB05KT P6SM -RA SCT025 OVC040 FM180400 15012G20KT 3SM -RA BR OVC015 FM181200 22012G20KT 6SM -SHRA BR OVC015